Bartonville, Texas
Current Conditions -  °F | °C
As of 10:38 PM on Saturday 20 Dec 2014 (Local Time) from KDTO Reporting Station
Overcast Overcast  
Wind Chill: 44°   Ceiling: 3100
Heat Index: 46°   Visibility: 8mi
Dew Point: 43°   Wind: 5mph
Humidity: 89%   Direction: 120°ESE
Pressure: 30.19"   Gusts: NA
Location:  33.108°N, 97.1641°W
Report Text: KDTO 210438Z AUTO 12004KT 8SM OVC031 08/06 A3019 RMK AO2 T00780061
Loading
Personal Weather Stations






























Interactive Weather Map New forecast layout! Learn more

10-Day Weather Forecast

Advertisements
Track Severe Weather on mobile